Neva Lux — UGZF — position and weather

sailwx.info

Track history (hours):
 
Tides and Currents Weather Stations Pressure Air Temp Water Temp Dewpoint Dewpoint Depression Visibility Wind Speed Wind Dir Waves Ship Positions

Neva Lux

Last reported at 2014-Aug-18 12:15 UTC. Time now 2014-Aug-20 10:47 UTC.
Position N 59°55' E 030°14'.

Length 65 m; draft 3 m.

Type: Tanker. MMSI: 273426540.

Date/timePositionNaut miles runAvg speedWind from/ knotsBaromVisibWave heightAir tempDewpointWater temp
2014-Aug-18 12:15N 59°55' E 030°14'0 0.3
2014-Aug-18 11:28N 59°55' E 030°14'0 0.0
2014-Aug-18 10:24N 59°55' E 030°14'0 0.1
2014-Aug-18 09:25N 59°55' E 030°14'2 2.4
2014-Aug-18 08:33N 59°56' E 030°10'2 0.1
2014-Aug-16 19:31N 59°54' E 030°13'1 0.1
2014-Aug-16 11:32N 59°55' E 030°13'0 0.0
2014-Aug-16 10:32N 59°55' E 030°13'0 0.0
2014-Aug-15 22:29N 59°54' E 030°13'0 0.4
2014-Aug-15 21:33N 59°55' E 030°13'0 0.0
2014-Aug-15 20:26N 59°55' E 030°13'0 0.0
2014-Aug-15 14:32N 59°54' E 030°14'0 0.0
2014-Aug-15 09:21N 59°55' E 030°14'0 0.0
2014-Aug-14 21:07N 59°55' E 030°13'0 0.1
2014-Aug-14 16:31N 59°55' E 030°14'0 0.2
2014-Aug-14 15:33N 59°55' E 030°14'0 0.0
2014-Aug-14 14:33N 59°55' E 030°14'0 0.0
2014-Aug-14 13:33N 59°55' E 030°14'0 0.0
2014-Aug-14 09:05N 59°55' E 030°14'0 0.4
2014-Aug-14 08:20N 59°55' E 030°14'0 0.0
2014-Aug-14 07:33N 59°55' E 030°14'0 0.0
2014-Aug-14 06:33N 59°55' E 030°14'0 0.0
2014-Aug-14 05:33N 59°55' E 030°14'0 0.0
2014-Aug-14 04:33N 59°55' E 030°14'0 0.0
2014-Aug-14 03:33N 59°55' E 030°14'0 0.0
2014-Aug-14 02:33N 59°55' E 030°14'0 0.0
2014-Aug-14 01:33N 59°55' E 030°14'0 0.0
2014-Aug-14 00:33N 59°55' E 030°14'0 0.0
2014-Aug-13 23:33N 59°55' E 030°14'0 0.2
2014-Aug-13 22:32N 59°55' E 030°14'0 0.1
2014-Aug-13 20:06N 59°55' E 030°13'3 4.9
2014-Aug-13 19:33N 59°56' E 030°09'2 0.2
2014-Aug-13 08:19N 59°56' E 030°05'5 6.3
2014-Aug-13 07:31N 59°55' E 030°14'0 0.0
2014-Aug-12 23:09N 59°54' E 030°14'1 1.3
2014-Aug-12 22:33N 59°55' E 030°15'0 0.0
2014-Aug-12 21:33N 59°55' E 030°15'0 0.0
2014-Aug-12 20:33N 59°55' E 030°15'0 0.0
2014-Aug-12 19:33N 59°55' E 030°15'0 0.0
2014-Aug-12 18:33N 59°55' E 030°15'0 0.0
2014-Aug-12 17:33N 59°55' E 030°15'0 0.0
2014-Aug-12 16:33N 59°55' E 030°15'0 0.0
2014-Aug-12 15:33N 59°55' E 030°15'0 0.0
2014-Aug-12 14:33N 59°55' E 030°15'0 0.0
2014-Aug-12 13:33N 59°55' E 030°15'0 0.4
2014-Aug-12 12:22N 59°55' E 030°14'0 0.0
2014-Aug-12 08:33N 59°55' E 030°14'0 0.0
2014-Aug-12 07:33N 59°55' E 030°14'0 0.0
2014-Aug-12 06:33N 59°55' E 030°14'0 0.0
2014-Aug-12 05:33N 59°55' E 030°14'0 0.0
2014-Aug-12 04:34N 59°55' E 030°14'0 0.0
2014-Aug-12 03:33N 59°55' E 030°14'0 0.0
2014-Aug-12 02:19N 59°55' E 030°14'0 0.1
2014-Aug-12 01:33N 59°55' E 030°14'0 0.0
2014-Aug-11 18:33N 59°55' E 030°14'1 0.1
2014-Aug-11 04:30N 59°54' E 030°13'  
2014-Aug-08 14:19N 59°54' E 030°14'4 4.9
2014-Aug-08 13:30N 59°57' E 030°07'  
Track history (hours):
 
Tides and Currents Weather Stations Pressure Air Temp Water Temp Dewpoint Dewpoint Depression Visibility Wind Speed Wind Dir Waves Ship Positions

Neva Lux

Last reported at 2014-Aug-18 12:15 UTC. Time now 2014-Aug-20 10:47 UTC.
Position N 59°55' E 030°14'.

Length 65 m; draft 3 m.

Type: Tanker. MMSI: 273426540.

Date/timePositionNaut miles runAvg speedWind from/ knotsBaromVisibWave heightAir tempDewpointWater temp
2014-Aug-18 12:15N 59°55' E 030°14'0 0.3
2014-Aug-18 11:28N 59°55' E 030°14'0 0.0
2014-Aug-18 10:24N 59°55' E 030°14'0 0.1
2014-Aug-18 09:25N 59°55' E 030°14'2 2.4
2014-Aug-18 08:33N 59°56' E 030°10'2 0.1
2014-Aug-16 19:31N 59°54' E 030°13'1 0.1
2014-Aug-16 11:32N 59°55' E 030°13'0 0.0
2014-Aug-16 10:32N 59°55' E 030°13'0 0.0
2014-Aug-15 22:29N 59°54' E 030°13'0 0.4
2014-Aug-15 21:33N 59°55' E 030°13'0 0.0
2014-Aug-15 20:26N 59°55' E 030°13'0 0.0
2014-Aug-15 14:32N 59°54' E 030°14'0 0.0
2014-Aug-15 09:21N 59°55' E 030°14'0 0.0
2014-Aug-14 21:07N 59°55' E 030°13'0 0.1
2014-Aug-14 16:31N 59°55' E 030°14'0 0.2
2014-Aug-14 15:33N 59°55' E 030°14'0 0.0
2014-Aug-14 14:33N 59°55' E 030°14'0 0.0
2014-Aug-14 13:33N 59°55' E 030°14'0 0.0
2014-Aug-14 09:05N 59°55' E 030°14'0 0.4
2014-Aug-14 08:20N 59°55' E 030°14'0 0.0
2014-Aug-14 07:33N 59°55' E 030°14'0 0.0
2014-Aug-14 06:33N 59°55' E 030°14'0 0.0
2014-Aug-14 05:33N 59°55' E 030°14'0 0.0
2014-Aug-14 04:33N 59°55' E 030°14'0 0.0
2014-Aug-14 03:33N 59°55' E 030°14'0 0.0
2014-Aug-14 02:33N 59°55' E 030°14'0 0.0
2014-Aug-14 01:33N 59°55' E 030°14'0 0.0
2014-Aug-14 00:33N 59°55' E 030°14'0 0.0
2014-Aug-13 23:33N 59°55' E 030°14'0 0.2
2014-Aug-13 22:32N 59°55' E 030°14'0 0.1
2014-Aug-13 20:06N 59°55' E 030°13'3 4.9
2014-Aug-13 19:33N 59°56' E 030°09'2 0.2
2014-Aug-13 08:19N 59°56' E 030°05'5 6.3
2014-Aug-13 07:31N 59°55' E 030°14'0 0.0
2014-Aug-12 23:09N 59°54' E 030°14'1 1.3
2014-Aug-12 22:33N 59°55' E 030°15'0 0.0
2014-Aug-12 21:33N 59°55' E 030°15'0 0.0
2014-Aug-12 20:33N 59°55' E 030°15'0 0.0
2014-Aug-12 19:33N 59°55' E 030°15'0 0.0
2014-Aug-12 18:33N 59°55' E 030°15'0 0.0
2014-Aug-12 17:33N 59°55' E 030°15'0 0.0
2014-Aug-12 16:33N 59°55' E 030°15'0 0.0
2014-Aug-12 15:33N 59°55' E 030°15'0 0.0
2014-Aug-12 14:33N 59°55' E 030°15'0 0.0
2014-Aug-12 13:33N 59°55' E 030°15'0 0.4
2014-Aug-12 12:22N 59°55' E 030°14'0 0.0
2014-Aug-12 08:33N 59°55' E 030°14'0 0.0
2014-Aug-12 07:33N 59°55' E 030°14'0 0.0
2014-Aug-12 06:33N 59°55' E 030°14'0 0.0
2014-Aug-12 05:33N 59°55' E 030°14'0 0.0
2014-Aug-12 04:34N 59°55' E 030°14'0 0.0
2014-Aug-12 03:33N 59°55' E 030°14'0 0.0
2014-Aug-12 02:19N 59°55' E 030°14'0 0.1
2014-Aug-12 01:33N 59°55' E 030°14'0 0.0
2014-Aug-11 18:33N 59°55' E 030°14'1 0.1
2014-Aug-11 04:30N 59°54' E 030°13'  
2014-Aug-08 14:19N 59°54' E 030°14'4 4.9
2014-Aug-08 13:30N 59°57' E 030°07'  

Dump ship's entire track history